METAR AND TAF INFORMATION
METAR FOR LFMP
ADDS - METARS form results

(0419 UTC 03 February 2023)
Data provider http://aviationweather.gov/metar/data/
 
METAR text: LFMP 030400Z AUTO 29013KT CAVOK 10/M02 Q1029 BECMG 31015G25KT
Conditions at: LFMP (PERPIGNAN/RIVESA, FR) observed 0400 UTC 03 February 2023
Temperature: 10.0°C (50°F)
Dewpoint: -2.0°C (28°F) [RH = 43%]
Pressure (altimeter): 30.38 inches Hg (1029.0 mb)
Winds: from the WNW (290 degrees) at 15 MPH (13 knots; 6.7 m/s)
Visibility: 6 or more miles (10+ km)
Ceiling: ceiling and visibility are OK
Clouds: unknown
Weather: no significant weather observed at this time

METAR text: LFMP 030330Z AUTO 28015KT CAVOK 10/M02 Q1029 BECMG 31015G25KT
Conditions at: LFMP (PERPIGNAN/RIVESA, FR) observed 0330 UTC 03 February 2023
Temperature: 10.0°C (50°F)
Dewpoint: -2.0°C (28°F) [RH = 43%]
Pressure (altimeter): 30.38 inches Hg (1029.0 mb)
Winds: from the W (280 degrees) at 17 MPH (15 knots; 7.7 m/s)
Visibility: 6 or more miles (10+ km)
Ceiling: ceiling and visibility are OK
Clouds: unknown
Weather: no significant weather observed at this time

Forecast for: LFMP (PERPIGNAN/RIVESA, FR)
Text: TAF LFMP 030200Z 0303/0403 31015G25KT CAVOK
Forecast period: 0300 to 2000 UTC 03 February 2023
Forecast type: FROM: standard forecast or significant change
Winds: from the NW (310 degrees) at 17 MPH (15 knots; 7.7 m/s)
gusting to 29 MPH (25 knots; 12.9 m/s)
Visibility: 6 or more miles (10+ km)
Ceiling: unknown
Clouds: missing
Weather: NSW  (no significant weather)
Text: BECMG 0320/0322 31020G30KT
Forecast period: 2000 UTC 03 February 2023 to 0300 UTC 04 February 2023
Forecast type: BECOMING: Conditions expected to become as follows by 2200 UTC 03 February 2023
Winds: from the NW (310 degrees) at 23 MPH (20 knots; 10.3 m/s)
gusting to 34 MPH (30 knots; 15.4 m/s)
Visibility: 6 or more miles (10+ km)
Ceiling: unknown
Clouds: missing
Weather: NSW  (no significant weather)

 AIRPORT MAP

 RUNWAY INFORMATION
Runway 13 Runway length 4150 ft Runway width 66 ft
Runway elevation 143 ft Runway displaced threshold 404 ft Runway heading 127
Runway 31 Runway length 4150 ft Runway width 66 ft
Runway elevation 131 ft Runway displaced threshold 1158 ft Runway heading 307
Runway 15 Runway length 8202 ft Runway width 148 ft
Runway elevation 130 ft Runway displaced threshold 0 ft Runway heading 148
Runway 33 Runway length 8202 ft Runway width 148 ft
Runway elevation 135 ft Runway displaced threshold 557 ft Runway heading 328

 AIRPORT FREQUENCIES
Type APP Name PERPIGNAN Frequency 120.75 MHZ
Type ATIS Name ATIS Frequency 127.875 MHZ
Type TWR Name PERPIGNAN Frequency 121.9 MHZ

 AIRPORT NEAR NAVIGATION AIDS
Type VOR-DME Name Perpignan Frequency 116250 KHZ



Powered by Virtual Airlines Manager [v2.6.2]